VEAT/IXA METAR and TAF weather

Enter ICAO airport designator
Station Type Date Time Source
VEAT METAR 2019/02/18 04:30 UTC NOAA

VEAT 180430Z 00000KT 3500 HZ NSC 24/17 Q1015 NOSIG


Station Type Date Time Source
VEAT Decoded METAR 2019/02/18 04:30 UTC NOAA

Agartala, India (VEAT) 23-53N 091-15E 16M
Feb 17, 2019 - 11:30 PM EST / 2019.02.18 0430 UTC
Wind: Calm:0
Visibility: 2 mile(s):0
Weather: haze
Temperature: 75 F (24 C)
Dew Point: 62 F (17 C)
Relative Humidity: 64%
Pressure (altimeter): 29.97 in. Hg (1015 hPa)
ob: VEAT 180430Z 00000KT 3500 HZ NSC 24/17 Q1015 NOSIG
cycle: 4

Station Type Date Time Source
VEAT TAF 2013/07/19 12:00 UTC NOAA

TAF VEAT 190900Z 1912/1921 16008KT 5000 HZ SCT018 FEW030CB BKN100
TEMPO 1912/1921 3000 -TSRA SCT015 FEW025CB OVC090


Example: see airport list